sensor_id;sensor_type;location;lat;lon;timestamp;P1;durP1;ratioP1;P2;durP2;ratioP2
19384;SDS011;9828;54.122;17.974;2022-11-24T00:01:50;69.37;;;29.40;;
19384;SDS011;9828;54.122;17.974;2022-11-24T00:07:11;62.43;;;27.63;;
19384;SDS011;9828;54.122;17.974;2022-11-24T00:12:32;58.60;;;26.87;;
19384;SDS011;9828;54.122;17.974;2022-11-24T00:17:54;58.93;;;28.23;;
19384;SDS011;9828;54.122;17.974;2022-11-24T00:23:15;80.33;;;30.73;;
19384;SDS011;9828;54.122;17.974;2022-11-24T00:28:36;69.87;;;29.63;;
19384;SDS011;9828;54.122;17.974;2022-11-24T00:33:59;63.50;;;28.93;;
19384;SDS011;9828;54.122;17.974;2022-11-24T00:39:22;66.10;;;32.17;;
19384;SDS011;9828;54.122;17.974;2022-11-24T00:44:44;72.77;;;31.83;;
19384;SDS011;9828;54.122;17.974;2022-11-24T00:50:06;70.70;;;30.03;;
19384;SDS011;9828;54.122;17.974;2022-11-24T00:55:28;64.10;;;27.30;;
19384;SDS011;9828;54.122;17.974;2022-11-24T01:00:49;67.23;;;28.53;;
19384;SDS011;9828;54.122;17.974;2022-11-24T01:06:12;70.43;;;32.47;;
19384;SDS011;9828;54.122;17.974;2022-11-24T01:11:36;65.83;;;29.30;;
19384;SDS011;9828;54.122;17.974;2022-11-24T01:17:16;66.37;;;27.37;;
19384;SDS011;9828;54.122;17.974;2022-11-24T01:22:37;64.13;;;27.63;;
19384;SDS011;9828;54.122;17.974;2022-11-24T01:27:59;57.17;;;26.53;;
19384;SDS011;9828;54.122;17.974;2022-11-24T01:33:20;60.53;;;26.70;;
19384;SDS011;9828;54.122;17.974;2022-11-24T01:38:41;60.77;;;26.80;;
19384;SDS011;9828;54.122;17.974;2022-11-24T01:44:46;61.07;;;26.80;;
19384;SDS011;9828;54.122;17.974;2022-11-24T01:49:50;60.40;;;27.17;;
19384;SDS011;9828;54.122;17.974;2022-11-24T01:55:16;69.47;;;28.13;;
19384;SDS011;9828;54.122;17.974;2022-11-24T02:00:45;66.80;;;29.53;;
19384;SDS011;9828;54.122;17.974;2022-11-24T02:06:08;60.50;;;25.50;;
19384;SDS011;9828;54.122;17.974;2022-11-24T02:11:34;84.53;;;36.20;;
19384;SDS011;9828;54.122;17.974;2022-11-24T02:16:58;63.93;;;29.60;;
19384;SDS011;9828;54.122;17.974;2022-11-24T02:27:59;62.70;;;28.17;;
19384;SDS011;9828;54.122;17.974;2022-11-24T02:33:24;69.80;;;28.30;;
19384;SDS011;9828;54.122;17.974;2022-11-24T02:38:46;67.37;;;27.40;;
19384;SDS011;9828;54.122;17.974;2022-11-24T02:44:08;62.27;;;26.73;;
19384;SDS011;9828;54.122;17.974;2022-11-24T02:49:29;65.67;;;27.70;;
19384;SDS011;9828;54.122;17.974;2022-11-24T02:54:50;65.40;;;30.40;;
19384;SDS011;9828;54.122;17.974;2022-11-24T03:00:12;71.13;;;27.47;;
19384;SDS011;9828;54.122;17.974;2022-11-24T03:05:34;57.70;;;26.63;;
19384;SDS011;9828;54.122;17.974;2022-11-24T03:10:55;63.57;;;27.83;;
19384;SDS011;9828;54.122;17.974;2022-11-24T03:16:16;60.23;;;26.80;;
19384;SDS011;9828;54.122;17.974;2022-11-24T03:21:38;63.53;;;27.50;;
19384;SDS011;9828;54.122;17.974;2022-11-24T03:26:59;59.33;;;25.97;;
19384;SDS011;9828;54.122;17.974;2022-11-24T03:32:21;61.57;;;25.90;;
19384;SDS011;9828;54.122;17.974;2022-11-24T03:37:42;66.37;;;27.77;;
19384;SDS011;9828;54.122;17.974;2022-11-24T03:43:04;61.30;;;26.53;;
19384;SDS011;9828;54.122;17.974;2022-11-24T03:48:25;70.50;;;30.37;;
19384;SDS011;9828;54.122;17.974;2022-11-24T03:53:46;74.77;;;33.17;;
19384;SDS011;9828;54.122;17.974;2022-11-24T03:59:07;97.23;;;40.13;;
19384;SDS011;9828;54.122;17.974;2022-11-24T04:04:29;68.70;;;28.33;;
19384;SDS011;9828;54.122;17.974;2022-11-24T04:09:50;85.67;;;38.87;;
19384;SDS011;9828;54.122;17.974;2022-11-24T04:15:15;66.03;;;29.07;;
19384;SDS011;9828;54.122;17.974;2022-11-24T04:20:38;52.13;;;24.33;;
19384;SDS011;9828;54.122;17.974;2022-11-24T04:26:01;51.50;;;23.07;;
19384;SDS011;9828;54.122;17.974;2022-11-24T04:31:22;61.47;;;24.97;;
19384;SDS011;9828;54.122;17.974;2022-11-24T04:36:43;58.93;;;26.97;;
19384;SDS011;9828;54.122;17.974;2022-11-24T04:42:05;61.80;;;25.97;;
19384;SDS011;9828;54.122;17.974;2022-11-24T04:47:26;67.33;;;28.33;;
19384;SDS011;9828;54.122;17.974;2022-11-24T04:52:47;65.47;;;27.57;;
19384;SDS011;9828;54.122;17.974;2022-11-24T04:58:09;62.77;;;25.77;;
19384;SDS011;9828;54.122;17.974;2022-11-24T05:03:30;55.10;;;24.17;;
19384;SDS011;9828;54.122;17.974;2022-11-24T05:08:52;51.00;;;23.73;;
19384;SDS011;9828;54.122;17.974;2022-11-24T05:14:13;44.27;;;21.37;;
19384;SDS011;9828;54.122;17.974;2022-11-24T05:19:35;52.10;;;22.20;;
19384;SDS011;9828;54.122;17.974;2022-11-24T05:24:56;54.20;;;26.57;;
19384;SDS011;9828;54.122;17.974;2022-11-24T05:30:17;68.67;;;29.80;;
19384;SDS011;9828;54.122;17.974;2022-11-24T05:35:39;69.53;;;29.93;;
19384;SDS011;9828;54.122;17.974;2022-11-24T05:41:01;73.67;;;32.33;;
19384;SDS011;9828;54.122;17.974;2022-11-24T05:46:25;72.63;;;31.00;;
19384;SDS011;9828;54.122;17.974;2022-11-24T05:51:46;66.37;;;28.43;;
19384;SDS011;9828;54.122;17.974;2022-11-24T05:57:08;68.47;;;29.77;;
19384;SDS011;9828;54.122;17.974;2022-11-24T06:02:29;83.13;;;32.30;;
19384;SDS011;9828;54.122;17.974;2022-11-24T06:07:50;95.33;;;39.67;;
19384;SDS011;9828;54.122;17.974;2022-11-24T06:13:12;86.77;;;41.40;;
19384;SDS011;9828;54.122;17.974;2022-11-24T06:18:33;70.80;;;32.57;;
19384;SDS011;9828;54.122;17.974;2022-11-24T06:23:54;62.40;;;28.37;;
19384;SDS011;9828;54.122;17.974;2022-11-24T06:29:15;54.07;;;25.23;;
19384;SDS011;9828;54.122;17.974;2022-11-24T06:34:36;52.53;;;23.47;;
19384;SDS011;9828;54.122;17.974;2022-11-24T06:39:58;57.87;;;24.63;;
19384;SDS011;9828;54.122;17.974;2022-11-24T06:45:19;80.20;;;36.53;;
19384;SDS011;9828;54.122;17.974;2022-11-24T06:50:40;73.07;;;35.63;;
19384;SDS011;9828;54.122;17.974;2022-11-24T06:56:02;62.83;;;29.13;;
19384;SDS011;9828;54.122;17.974;2022-11-24T07:01:26;63.53;;;30.63;;
19384;SDS011;9828;54.122;17.974;2022-11-24T07:06:48;67.90;;;30.07;;
19384;SDS011;9828;54.122;17.974;2022-11-24T07:12:09;70.30;;;33.93;;
19384;SDS011;9828;54.122;17.974;2022-11-24T07:17:34;72.73;;;32.27;;
19384;SDS011;9828;54.122;17.974;2022-11-24T07:22:58;72.47;;;31.67;;
19384;SDS011;9828;54.122;17.974;2022-11-24T07:28:20;80.17;;;34.43;;
19384;SDS011;9828;54.122;17.974;2022-11-24T07:33:41;83.97;;;33.30;;
19384;SDS011;9828;54.122;17.974;2022-11-24T07:39:04;85.30;;;34.43;;
19384;SDS011;9828;54.122;17.974;2022-11-24T07:44:26;75.37;;;31.53;;
19384;SDS011;9828;54.122;17.974;2022-11-24T07:49:47;69.57;;;30.40;;
19384;SDS011;9828;54.122;17.974;2022-11-24T07:55:09;72.23;;;31.97;;
19384;SDS011;9828;54.122;17.974;2022-11-24T08:00:30;73.40;;;31.77;;
19384;SDS011;9828;54.122;17.974;2022-11-24T08:05:52;68.13;;;30.40;;
19384;SDS011;9828;54.122;17.974;2022-11-24T08:11:35;79.03;;;32.53;;
19384;SDS011;9828;54.122;17.974;2022-11-24T08:16:56;70.03;;;30.57;;
19384;SDS011;9828;54.122;17.974;2022-11-24T08:22:18;70.50;;;32.53;;
19384;SDS011;9828;54.122;17.974;2022-11-24T08:27:39;67.07;;;29.70;;
19384;SDS011;9828;54.122;17.974;2022-11-24T08:33:01;69.30;;;31.17;;
19384;SDS011;9828;54.122;17.974;2022-11-24T08:38:22;69.57;;;27.73;;
19384;SDS011;9828;54.122;17.974;2022-11-24T08:43:43;69.60;;;29.97;;
19384;SDS011;9828;54.122;17.974;2022-11-24T08:49:04;70.23;;;30.90;;
19384;SDS011;9828;54.122;17.974;2022-11-24T08:54:26;69.50;;;29.20;;
19384;SDS011;9828;54.122;17.974;2022-11-24T08:59:48;72.43;;;30.10;;
19384;SDS011;9828;54.122;17.974;2022-11-24T09:05:09;72.73;;;32.03;;
19384;SDS011;9828;54.122;17.974;2022-11-24T09:10:41;63.00;;;29.37;;
19384;SDS011;9828;54.122;17.974;2022-11-24T09:16:03;75.13;;;31.40;;
19384;SDS011;9828;54.122;17.974;2022-11-24T09:21:27;64.63;;;27.77;;
19384;SDS011;9828;54.122;17.974;2022-11-24T09:26:49;64.13;;;28.03;;
19384;SDS011;9828;54.122;17.974;2022-11-24T09:32:10;77.33;;;30.77;;
19384;SDS011;9828;54.122;17.974;2022-11-24T09:37:32;78.37;;;32.27;;
19384;SDS011;9828;54.122;17.974;2022-11-24T09:48:26;80.83;;;33.77;;
19384;SDS011;9828;54.122;17.974;2022-11-24T09:53:58;79.33;;;33.03;;
19384;SDS011;9828;54.122;17.974;2022-11-24T09:59:24;75.17;;;29.57;;
19384;SDS011;9828;54.122;17.974;2022-11-24T10:04:46;75.33;;;29.37;;
19384;SDS011;9828;54.122;17.974;2022-11-24T10:10:17;68.23;;;28.70;;
19384;SDS011;9828;54.122;17.974;2022-11-24T10:26:55;93.73;;;36.87;;
19384;SDS011;9828;54.122;17.974;2022-11-24T10:32:23;77.93;;;34.23;;
19384;SDS011;9828;54.122;17.974;2022-11-24T10:38:01;80.37;;;38.03;;
19384;SDS011;9828;54.122;17.974;2022-11-24T10:43:41;82.40;;;36.27;;
19384;SDS011;9828;54.122;17.974;2022-11-24T10:49:02;82.50;;;35.47;;
19384;SDS011;9828;54.122;17.974;2022-11-24T10:54:25;79.70;;;37.87;;
19384;SDS011;9828;54.122;17.974;2022-11-24T10:59:47;67.30;;;30.73;;
19384;SDS011;9828;54.122;17.974;2022-11-24T11:16:39;100.43;;;39.07;;
19384;SDS011;9828;54.122;17.974;2022-11-24T11:22:17;88.67;;;36.80;;
19384;SDS011;9828;54.122;17.974;2022-11-24T11:27:47;86.70;;;39.63;;
19384;SDS011;9828;54.122;17.974;2022-11-24T11:33:29;78.30;;;33.63;;
19384;SDS011;9828;54.122;17.974;2022-11-24T11:50:48;64.87;;;29.90;;
19384;SDS011;9828;54.122;17.974;2022-11-24T11:56:44;78.47;;;31.77;;
19384;SDS011;9828;54.122;17.974;2022-11-24T12:02:18;74.03;;;33.07;;
19384;SDS011;9828;54.122;17.974;2022-11-24T12:08:02;78.63;;;33.87;;
19384;SDS011;9828;54.122;17.974;2022-11-24T12:19:37;95.77;;;39.83;;
19384;SDS011;9828;54.122;17.974;2022-11-24T12:42:20;71.80;;;34.20;;
19384;SDS011;9828;54.122;17.974;2022-11-24T12:53:38;89.07;;;40.20;;
19384;SDS011;9828;54.122;17.974;2022-11-24T13:04:32;82.60;;;34.70;;
19384;SDS011;9828;54.122;17.974;2022-11-24T13:16:01;78.87;;;35.80;;
19384;SDS011;9828;54.122;17.974;2022-11-24T13:27:38;79.20;;;32.73;;
19384;SDS011;9828;54.122;17.974;2022-11-24T13:33:47;74.90;;;32.67;;
19384;SDS011;9828;54.122;17.974;2022-11-24T13:49:38;81.77;;;34.43;;
19384;SDS011;9828;54.122;17.974;2022-11-24T13:55:01;71.47;;;33.70;;
19384;SDS011;9828;54.122;17.974;2022-11-24T14:11:57;95.73;;;39.03;;
19384;SDS011;9828;54.122;17.974;2022-11-24T14:17:21;86.50;;;36.87;;
19384;SDS011;9828;54.122;17.974;2022-11-24T14:22:44;90.67;;;38.87;;
19384;SDS011;9828;54.122;17.974;2022-11-24T14:28:12;88.00;;;37.80;;
19384;SDS011;9828;54.122;17.974;2022-11-24T14:33:40;80.40;;;37.23;;
19384;SDS011;9828;54.122;17.974;2022-11-24T14:39:01;103.27;;;41.30;;
19384;SDS011;9828;54.122;17.974;2022-11-24T14:44:24;90.27;;;38.27;;
19384;SDS011;9828;54.122;17.974;2022-11-24T14:50:12;82.77;;;34.07;;
19384;SDS011;9828;54.122;17.974;2022-11-24T14:55:35;70.63;;;29.77;;
19384;SDS011;9828;54.122;17.974;2022-11-24T15:01:18;59.33;;;27.27;;
19384;SDS011;9828;54.122;17.974;2022-11-24T15:07:00;64.90;;;29.17;;
19384;SDS011;9828;54.122;17.974;2022-11-24T15:17:52;67.67;;;30.80;;
19384;SDS011;9828;54.122;17.974;2022-11-24T15:28:51;62.83;;;28.47;;
19384;SDS011;9828;54.122;17.974;2022-11-24T15:34:12;65.00;;;33.67;;
19384;SDS011;9828;54.122;17.974;2022-11-24T15:39:34;80.87;;;38.97;;
19384;SDS011;9828;54.122;17.974;2022-11-24T15:44:55;71.70;;;36.37;;
19384;SDS011;9828;54.122;17.974;2022-11-24T15:50:16;70.87;;;34.47;;
19384;SDS011;9828;54.122;17.974;2022-11-24T15:55:37;78.97;;;35.97;;
19384;SDS011;9828;54.122;17.974;2022-11-24T16:01:00;65.47;;;30.83;;
19384;SDS011;9828;54.122;17.974;2022-11-24T16:06:21;63.03;;;29.23;;
19384;SDS011;9828;54.122;17.974;2022-11-24T16:11:44;50.83;;;26.07;;
19384;SDS011;9828;54.122;17.974;2022-11-24T16:17:05;51.10;;;23.50;;
19384;SDS011;9828;54.122;17.974;2022-11-24T16:22:26;52.93;;;25.17;;
19384;SDS011;9828;54.122;17.974;2022-11-24T16:27:47;50.90;;;23.27;;
19384;SDS011;9828;54.122;17.974;2022-11-24T16:33:09;57.20;;;26.70;;
19384;SDS011;9828;54.122;17.974;2022-11-24T16:38:30;51.30;;;23.73;;
19384;SDS011;9828;54.122;17.974;2022-11-24T16:43:51;48.80;;;24.10;;
19384;SDS011;9828;54.122;17.974;2022-11-24T16:49:13;48.07;;;23.57;;
19384;SDS011;9828;54.122;17.974;2022-11-24T16:54:34;55.73;;;25.57;;
19384;SDS011;9828;54.122;17.974;2022-11-24T16:59:55;56.10;;;27.43;;
19384;SDS011;9828;54.122;17.974;2022-11-24T17:05:16;53.67;;;26.20;;
19384;SDS011;9828;54.122;17.974;2022-11-24T17:10:37;65.43;;;30.77;;
19384;SDS011;9828;54.122;17.974;2022-11-24T17:16:01;72.80;;;35.27;;
19384;SDS011;9828;54.122;17.974;2022-11-24T17:21:25;89.67;;;40.03;;
19384;SDS011;9828;54.122;17.974;2022-11-24T17:26:48;77.60;;;40.07;;
19384;SDS011;9828;54.122;17.974;2022-11-24T17:32:10;81.53;;;40.60;;
19384;SDS011;9828;54.122;17.974;2022-11-24T17:37:31;87.77;;;41.83;;
19384;SDS011;9828;54.122;17.974;2022-11-24T17:42:55;78.60;;;38.97;;
19384;SDS011;9828;54.122;17.974;2022-11-24T17:48:17;79.43;;;38.07;;
19384;SDS011;9828;54.122;17.974;2022-11-24T17:53:39;75.93;;;35.80;;
19384;SDS011;9828;54.122;17.974;2022-11-24T17:59:01;85.23;;;37.67;;
19384;SDS011;9828;54.122;17.974;2022-11-24T18:04:23;87.37;;;41.57;;
19384;SDS011;9828;54.122;17.974;2022-11-24T18:09:44;87.30;;;41.10;;
19384;SDS011;9828;54.122;17.974;2022-11-24T18:15:19;96.50;;;44.00;;
19384;SDS011;9828;54.122;17.974;2022-11-24T18:20:40;112.17;;;47.67;;
19384;SDS011;9828;54.122;17.974;2022-11-24T18:26:02;125.33;;;55.60;;
19384;SDS011;9828;54.122;17.974;2022-11-24T18:31:24;125.97;;;58.43;;
19384;SDS011;9828;54.122;17.974;2022-11-24T18:36:45;95.80;;;48.87;;
19384;SDS011;9828;54.122;17.974;2022-11-24T18:42:10;77.70;;;39.60;;
19384;SDS011;9828;54.122;17.974;2022-11-24T18:47:32;62.53;;;31.20;;
19384;SDS011;9828;54.122;17.974;2022-11-24T18:52:53;58.27;;;29.53;;
19384;SDS011;9828;54.122;17.974;2022-11-24T18:58:14;55.27;;;28.20;;
19384;SDS011;9828;54.122;17.974;2022-11-24T19:03:36;53.07;;;26.10;;
19384;SDS011;9828;54.122;17.974;2022-11-24T19:09:05;54.53;;;26.50;;
19384;SDS011;9828;54.122;17.974;2022-11-24T19:14:33;53.90;;;26.47;;
19384;SDS011;9828;54.122;17.974;2022-11-24T19:19:54;92.13;;;39.50;;
19384;SDS011;9828;54.122;17.974;2022-11-24T19:25:15;90.27;;;41.13;;
19384;SDS011;9828;54.122;17.974;2022-11-24T19:30:37;85.83;;;37.70;;
19384;SDS011;9828;54.122;17.974;2022-11-24T19:41:28;89.33;;;42.93;;
19384;SDS011;9828;54.122;17.974;2022-11-24T19:46:50;109.20;;;49.47;;
19384;SDS011;9828;54.122;17.974;2022-11-24T19:52:11;110.00;;;48.23;;
19384;SDS011;9828;54.122;17.974;2022-11-24T19:57:32;85.70;;;38.03;;
19384;SDS011;9828;54.122;17.974;2022-11-24T20:02:53;78.20;;;33.97;;
19384;SDS011;9828;54.122;17.974;2022-11-24T20:08:14;82.03;;;32.50;;
19384;SDS011;9828;54.122;17.974;2022-11-24T20:13:36;82.83;;;35.20;;
19384;SDS011;9828;54.122;17.974;2022-11-24T20:18:59;82.03;;;35.10;;
19384;SDS011;9828;54.122;17.974;2022-11-24T20:24:25;92.10;;;38.47;;
19384;SDS011;9828;54.122;17.974;2022-11-24T20:29:46;95.27;;;38.83;;
19384;SDS011;9828;54.122;17.974;2022-11-24T20:35:07;98.03;;;41.10;;
19384;SDS011;9828;54.122;17.974;2022-11-24T20:40:31;108.60;;;40.93;;
19384;SDS011;9828;54.122;17.974;2022-11-24T20:45:52;104.10;;;41.20;;
19384;SDS011;9828;54.122;17.974;2022-11-24T20:51:15;104.17;;;40.93;;
19384;SDS011;9828;54.122;17.974;2022-11-24T20:56:41;99.23;;;40.77;;
19384;SDS011;9828;54.122;17.974;2022-11-24T21:02:03;105.50;;;42.67;;
19384;SDS011;9828;54.122;17.974;2022-11-24T21:07:24;95.57;;;40.57;;
19384;SDS011;9828;54.122;17.974;2022-11-24T21:12:45;103.03;;;38.20;;
19384;SDS011;9828;54.122;17.974;2022-11-24T21:18:06;100.43;;;41.53;;
19384;SDS011;9828;54.122;17.974;2022-11-24T21:23:27;120.50;;;50.33;;
19384;SDS011;9828;54.122;17.974;2022-11-24T21:28:48;110.90;;;44.20;;
19384;SDS011;9828;54.122;17.974;2022-11-24T21:34:12;299.67;;;112.10;;
19384;SDS011;9828;54.122;17.974;2022-11-24T21:39:34;139.20;;;54.30;;
19384;SDS011;9828;54.122;17.974;2022-11-24T21:44:55;104.30;;;43.87;;
19384;SDS011;9828;54.122;17.974;2022-11-24T21:50:19;121.13;;;46.83;;
19384;SDS011;9828;54.122;17.974;2022-11-24T21:55:42;104.33;;;42.20;;
19384;SDS011;9828;54.122;17.974;2022-11-24T22:01:04;111.43;;;45.70;;
19384;SDS011;9828;54.122;17.974;2022-11-24T22:06:29;126.73;;;51.03;;
19384;SDS011;9828;54.122;17.974;2022-11-24T22:11:53;111.87;;;48.40;;
19384;SDS011;9828;54.122;17.974;2022-11-24T22:17:14;116.50;;;47.37;;
19384;SDS011;9828;54.122;17.974;2022-11-24T22:22:36;127.63;;;52.60;;
19384;SDS011;9828;54.122;17.974;2022-11-24T22:27:57;124.33;;;50.97;;
19384;SDS011;9828;54.122;17.974;2022-11-24T22:33:18;115.00;;;49.87;;
19384;SDS011;9828;54.122;17.974;2022-11-24T22:38:39;109.13;;;47.10;;
19384;SDS011;9828;54.122;17.974;2022-11-24T22:44:01;102.13;;;46.17;;
19384;SDS011;9828;54.122;17.974;2022-11-24T22:49:23;109.90;;;44.60;;
19384;SDS011;9828;54.122;17.974;2022-11-24T22:54:44;107.03;;;45.33;;
19384;SDS011;9828;54.122;17.974;2022-11-24T23:00:05;99.97;;;43.60;;
19384;SDS011;9828;54.122;17.974;2022-11-24T23:05:27;93.23;;;42.60;;
19384;SDS011;9828;54.122;17.974;2022-11-24T23:10:49;91.23;;;40.43;;
19384;SDS011;9828;54.122;17.974;2022-11-24T23:16:13;99.90;;;42.27;;
19384;SDS011;9828;54.122;17.974;2022-11-24T23:21:36;83.33;;;37.30;;
19384;SDS011;9828;54.122;17.974;2022-11-24T23:26:58;79.77;;;35.73;;
19384;SDS011;9828;54.122;17.974;2022-11-24T23:32:19;79.67;;;35.37;;
19384;SDS011;9828;54.122;17.974;2022-11-24T23:37:41;75.00;;;33.63;;
19384;SDS011;9828;54.122;17.974;2022-11-24T23:43:19;79.80;;;36.00;;
19384;SDS011;9828;54.122;17.974;2022-11-24T23:48:41;81.77;;;38.50;;
19384;SDS011;9828;54.122;17.974;2022-11-24T23:54:05;102.93;;;45.13;;
19384;SDS011;9828;54.122;17.974;2022-11-24T23:59:46;91.83;;;42.20;;
